createdAt,value
2022-09-17T00:08:46.798Z,0
2022-09-17T00:14:09.379Z,0
2022-09-17T00:19:32.235Z,0
2022-09-17T00:24:54.685Z,0
2022-09-17T00:35:28.102Z,0
2022-09-17T00:40:51.087Z,0
2022-09-17T00:46:17.235Z,0
2022-09-17T00:51:40.048Z,0
2022-09-17T00:57:02.789Z,0
2022-09-17T01:07:43.898Z,0
2022-09-17T01:13:06.676Z,0
2022-09-17T01:18:36.962Z,0
2022-09-17T01:23:59.249Z,0
2022-09-17T01:29:39.685Z,0
2022-09-17T01:35:01.910Z,0
2022-09-17T01:40:24.709Z,0
2022-09-17T01:45:47.787Z,0
2022-09-17T01:56:33.169Z,0
2022-09-17T02:02:06.313Z,0
2022-09-17T02:07:29.250Z,0
2022-09-17T02:12:51.968Z,0
2022-09-17T02:18:22.712Z,0
2022-09-17T02:23:45.179Z,0
2022-09-17T02:29:07.922Z,0
2022-09-17T02:34:32.970Z,0
2022-09-17T02:40:13.195Z,0
2022-09-17T02:45:35.875Z,0
2022-09-17T02:51:17.837Z,0
2022-09-17T02:56:40.631Z,0
2022-09-17T03:02:03.131Z,0
2022-09-17T03:07:26.108Z,0
2022-09-17T03:12:48.770Z,0
2022-09-17T03:18:11.470Z,0
2022-09-17T03:23:33.914Z,0
2022-09-17T03:28:56.605Z,0
2022-09-17T03:34:19.450Z,0
2022-09-17T03:39:41.842Z,0
2022-09-17T03:45:04.560Z,0
2022-09-17T03:55:52.479Z,0
2022-09-17T04:01:15.238Z,0
2022-09-17T04:06:38.199Z,0
2022-09-17T04:12:00.821Z,0
2022-09-17T04:22:34.258Z,0
2022-09-17T04:27:57.143Z,0
2022-09-17T04:33:21.090Z,0
2022-09-17T04:38:43.267Z,0
2022-09-17T04:44:05.926Z,0
2022-09-17T04:49:28.647Z,0
2022-09-17T04:54:51.021Z,0
2022-09-17T05:00:13.548Z,0
2022-09-17T05:05:36.207Z,0
2022-09-17T05:10:58.813Z,0
2022-09-17T05:16:24.219Z,0.1
2022-09-17T05:21:47.717Z,0.1
2022-09-17T05:27:13.716Z,0.1
2022-09-17T05:38:13.803Z,0.2
2022-09-17T05:43:36.140Z,0.3
2022-09-17T05:49:02.129Z,0.4
2022-09-17T05:54:25.092Z,0.4
2022-09-17T05:59:47.450Z,0.4
2022-09-17T06:05:12.961Z,0.3
2022-09-17T06:10:38.412Z,0.3
2022-09-17T06:16:01.510Z,0.5
2022-09-17T06:21:24.629Z,0.2
2022-09-17T06:26:46.980Z,0.1
2022-09-17T06:32:10.186Z,0.2
2022-09-17T06:37:32.944Z,0.3
2022-09-17T06:42:55.720Z,0.6
2022-09-17T06:48:24.853Z,0.9
2022-09-17T06:53:48.170Z,1.3
2022-09-17T06:59:11.359Z,0.7
2022-09-17T07:04:37.530Z,0.6
2022-09-17T07:10:00.481Z,0.7
2022-09-17T07:20:34.758Z,1
2022-09-17T07:25:57.928Z,1.2
2022-09-17T07:31:21.322Z,1.6
2022-09-17T07:36:44.225Z,1.3
2022-09-17T07:42:08.488Z,1.3
2022-09-17T07:47:31.139Z,0.9
2022-09-17T07:52:53.602Z,0.9
2022-09-17T07:58:16.494Z,1
2022-09-17T08:03:39.821Z,1.2
2022-09-17T08:09:02.702Z,0.8
2022-09-17T08:14:30.121Z,1.4
2022-09-17T08:19:56.959Z,4.5
2022-09-17T08:25:19.776Z,4.9
2022-09-17T08:30:43.148Z,5
2022-09-17T08:36:06.101Z,2.1
2022-09-17T08:41:28.464Z,4.7
2022-09-17T08:46:52.944Z,5.2
2022-09-17T08:52:19.131Z,5.7
2022-09-17T08:57:42.150Z,6.3
2022-09-17T09:03:10.982Z,4.8
2022-09-17T09:09:53.282Z,2.5
2022-09-17T09:15:14.685Z,1.9
2022-09-17T09:20:45.603Z,1.8
2022-09-17T09:31:31.094Z,2.3
2022-09-17T09:36:57.416Z,2.6
2022-09-17T09:42:26.302Z,2.6
2022-09-17T09:47:49.597Z,4.2
2022-09-17T09:53:16.671Z,6.4
2022-09-17T09:58:39.705Z,2
2022-09-17T10:04:04.185Z,6
2022-09-17T10:09:31.352Z,7.1
2022-09-17T10:14:55.464Z,5.8
2022-09-17T10:20:23.021Z,6.5
2022-09-17T10:25:47.413Z,6.9
2022-09-17T10:31:12.288Z,6.1
2022-09-17T10:36:38.818Z,2.5
2022-09-17T10:42:00.427Z,3.2
2022-09-17T10:47:23.241Z,7.5
2022-09-17T10:52:48.234Z,7.6
2022-09-17T10:58:12.852Z,1.6
2022-09-17T11:03:35.491Z,1.4
2022-09-17T11:08:58.444Z,1.3
2022-09-17T11:14:30.255Z,1.4
2022-09-17T11:19:58.049Z,7.1
2022-09-17T11:25:20.465Z,2.4
2022-09-17T11:30:44.066Z,2.5
2022-09-17T11:36:06.060Z,2
2022-09-17T11:41:28.582Z,0.9
2022-09-17T11:46:59.973Z,0.4
2022-09-17T11:52:22.065Z,0.5
2022-09-17T11:57:44.371Z,0.6
2022-09-17T12:03:06.984Z,1.1
2022-09-17T12:08:31.107Z,0.9
2022-09-17T12:13:53.047Z,1.3
2022-09-17T12:19:19.292Z,1.4
2022-09-17T12:24:42.776Z,1.5
2022-09-17T12:30:05.640Z,0.4
2022-09-17T12:35:41.003Z,0.4
2022-09-17T12:41:28.158Z,0.4
2022-09-17T12:46:50.914Z,0.6
2022-09-17T12:52:14.090Z,0.5
2022-09-17T12:57:36.686Z,0.7
2022-09-17T13:02:59.674Z,1.3
2022-09-17T13:08:23.234Z,1.2
2022-09-17T13:19:16.356Z,2.7
2022-09-17T13:24:40.383Z,1.5
2022-09-17T13:35:20.078Z,1.5
2022-09-17T13:40:41.248Z,3.7
2022-09-17T13:46:05.885Z,2
2022-09-17T13:51:28.382Z,3.1
2022-09-17T13:56:53.135Z,4.4
2022-09-17T14:02:18.989Z,3.9
2022-09-17T14:07:41.172Z,3.9
2022-09-17T14:13:06.228Z,2.9
2022-09-17T14:18:29.937Z,3.5
2022-09-17T14:23:52.902Z,4.6
2022-09-17T14:29:15.557Z,3.7
2022-09-17T14:34:36.543Z,1.1
2022-09-17T14:40:46.213Z,0.9
2022-09-17T14:46:11.296Z,4
2022-09-17T14:51:35.290Z,4.3
2022-09-17T14:56:56.770Z,1.6
2022-09-17T15:07:45.098Z,0.8
2022-09-17T15:13:07.920Z,1.3
2022-09-17T15:23:35.945Z,0.5
2022-09-17T15:28:58.914Z,0.5
2022-09-17T15:34:21.865Z,0.7
2022-09-17T15:39:44.619Z,0.6
2022-09-17T15:45:07.498Z,1.4
2022-09-17T15:50:30.888Z,1
2022-09-17T15:55:52.961Z,0.9
2022-09-17T16:06:18.176Z,0.9
2022-09-17T16:11:41.159Z,0.7
2022-09-17T16:17:03.603Z,0.5
2022-09-17T16:22:26.970Z,0.2
2022-09-17T16:27:49.569Z,0.2
2022-09-17T16:33:12.301Z,0.2
2022-09-17T16:38:36.738Z,0.3
2022-09-17T16:44:22.795Z,0.2
2022-09-17T16:49:54.105Z,0.1
2022-09-17T16:55:16.589Z,0.2
2022-09-17T17:00:39.498Z,0.2
2022-09-17T17:06:02.585Z,0.1
2022-09-17T17:11:25.053Z,0.1
2022-09-17T17:16:47.966Z,0.1
2022-09-17T17:22:15.707Z,0.1
2022-09-17T17:27:38.238Z,0.1
2022-09-17T17:33:01.085Z,0.1
2022-09-17T17:38:23.924Z,0.1
2022-09-17T17:43:49.174Z,0
2022-09-17T17:49:12.651Z,0
2022-09-17T17:59:46.235Z,0
2022-09-17T18:05:09.133Z,0
2022-09-17T18:10:32.266Z,0
2022-09-17T18:21:00.610Z,0
2022-09-17T18:26:23.498Z,0
2022-09-17T18:31:53.843Z,0
2022-09-17T18:37:16.788Z,0
2022-09-17T18:42:42.184Z,0
2022-09-17T18:48:15.129Z,0
2022-09-17T18:53:41.010Z,0
2022-09-17T18:59:07.872Z,0
2022-09-17T19:04:31.266Z,0
2022-09-17T19:09:54.168Z,0
2022-09-17T19:15:17.277Z,0
2022-09-17T19:20:40.135Z,0
2022-09-17T19:26:02.636Z,0
2022-09-17T19:31:26.808Z,0
2022-09-17T19:36:50.178Z,0
2022-09-17T19:42:12.885Z,0
2022-09-17T19:47:35.825Z,0
2022-09-17T19:52:58.268Z,0
2022-09-17T19:58:23.808Z,0
2022-09-17T20:03:46.476Z,0
2022-09-17T20:09:15.392Z,0
2022-09-17T20:14:38.171Z,0
2022-09-17T20:20:01.168Z,0
2022-09-17T20:25:30.867Z,0
2022-09-17T20:30:54.684Z,0
2022-09-17T20:36:18.347Z,0
2022-09-17T20:41:40.498Z,0
2022-09-17T20:47:08.897Z,0
2022-09-17T20:52:34.850Z,0
2022-09-17T20:57:57.772Z,0
2022-09-17T21:03:20.446Z,0
2022-09-17T21:08:49.579Z,0
2022-09-17T21:14:12.047Z,0
2022-09-17T21:19:34.651Z,0
2022-09-17T21:25:00.097Z,0
2022-09-17T21:30:25.987Z,0
2022-09-17T21:35:49.360Z,0
2022-09-17T21:41:12.165Z,0
2022-09-17T21:46:34.826Z,0
2022-09-17T21:51:57.641Z,0
2022-09-17T21:57:20.511Z,0
2022-09-17T22:02:43.321Z,0
2022-09-17T22:08:09.046Z,0
2022-09-17T22:13:35.155Z,0
2022-09-17T22:19:18.786Z,0
2022-09-17T22:24:41.246Z,0
2022-09-17T22:30:04.016Z,0
2022-09-17T22:40:53.912Z,0
2022-09-17T22:46:26.604Z,0
2022-09-17T22:51:51.561Z,0
2022-09-17T22:57:14.264Z,0
2022-09-17T23:02:36.980Z,0
2022-09-17T23:08:00.130Z,0
2022-09-17T23:18:53.312Z,0
2022-09-17T23:24:16.122Z,0
2022-09-17T23:30:15.660Z,0
2022-09-17T23:35:40.816Z,0
2022-09-17T23:42:12.843Z,0
2022-09-17T23:52:58.688Z,0
2022-09-17T23:58:21.730Z,0
